Time;durP1;ratioP1;P1;durP2;ratioP2;P2;SDS_P1;SDS_P2;PMS_P1;PMS_P2;Temp;Humidity;BMP_temperature;BMP_pressure;BME280_temperature;BME280_humidity;BME280_pressure;Samples;Min_cycle;Max_cycle;Signal;HPM_P1;HPM_P2
2024/01/10 05:04:23;;;;;;;19.80;12.82;;;;;;;-1.79;68.49;102252.84;5606278;31;78204;-55
2024/01/10 05:07:26;;;;;;;18.87;11.98;;;;;;;-1.38;79.08;102264.47;5603725;31;33364;-56
2024/01/10 05:10:28;;;;;;;203.75;26.15;;;;;;;-1.53;64.32;102263.38;5603507;31;33661;-56
2024/01/10 05:13:31;;;;;;;18.35;11.75;;;;;;;-1.55;97.22;102260.91;5601608;31;33541;-56
2024/01/10 05:16:33;;;;;;;16.87;11.20;;;;;;;-1.48;70.37;102261.94;5583145;31;33502;-55
2024/01/10 05:19:36;;;;;;;19.75;11.40;;;;;;;-1.75;74.50;102260.28;5583794;32;34231;-56
2024/01/10 05:22:40;;;;;;;16.50;10.85;;;;;;;-1.61;62.25;102263.34;5585555;31;33601;-56
2024/01/10 05:25:43;;;;;;;18.92;10.93;;;;;;;-1.64;63.63;102268.91;5595810;31;33518;-57
2024/01/10 05:28:45;;;;;;;15.95;10.02;;;;;;;-1.51;80.43;102270.16;5599528;31;33054;-56
2024/01/10 05:31:48;;;;;;;107.37;15.90;;;;;;;-1.73;76.04;102271.44;5603054;31;33787;-56
2024/01/10 05:34:50;;;;;;;53.13;12.98;;;;;;;-1.87;88.48;102264.13;5603338;31;34304;-56
2024/01/10 05:37:54;;;;;;;15.23;9.82;;;;;;;-2.04;75.48;102264.97;5601825;31;33651;-56
2024/01/10 05:40:56;;;;;;;19.25;10.02;;;;;;;-1.74;64.71;102256.66;5602270;31;33618;-56
2024/01/10 05:43:58;;;;;;;15.82;9.35;;;;;;;-1.83;71.55;102262.00;5601666;31;33495;-56
2024/01/10 05:47:01;;;;;;;205.37;22.98;;;;;;;-1.64;60.43;102255.75;5583916;31;33625;-56
2024/01/10 05:50:06;;;;;;;55.63;12.82;;;;;;;-1.55;86.06;102258.28;5583445;31;34264;-56
2024/01/10 05:53:10;;;;;;;16.83;9.98;;;;;;;-1.77;82.10;102256.16;5583249;32;34587;-56
2024/01/10 05:56:14;;;;;;;18.45;9.65;;;;;;;-1.84;67.62;102260.37;5581398;31;33630;-56
2024/01/10 05:59:19;;;;;;;15.40;9.55;;;;;;;-1.75;70.68;102262.91;5582417;32;33590;-58
2024/01/10 06:02:24;;;;;;;15.43;9.93;;;;;;;-1.70;71.04;102260.63;5568022;32;32125;-58
2024/01/10 06:05:26;;;;;;;16.50;9.65;;;;;;;-1.84;62.42;102261.19;5566860;31;34182;-60
2024/01/10 06:08:29;;;;;;;17.75;10.05;;;;;;;-1.61;65.94;102256.28;5569049;32;32052;-58
2024/01/10 06:11:32;;;;;;;19.40;11.00;;;;;;;-1.46;61.36;102260.00;5582077;32;33189;-59
2024/01/10 06:14:34;;;;;;;16.90;10.38;;;;;;;-1.47;62.12;102268.03;5565078;32;33657;-58
2024/01/10 06:17:37;;;;;;;19.75;10.52;;;;;;;-1.33;59.29;102275.34;5563114;32;33610;-59
2024/01/10 06:20:40;;;;;;;18.35;9.93;;;;;;;-1.30;58.87;102274.22;5561398;32;33795;-59
2024/01/10 06:23:42;;;;;;;20.42;10.65;;;;;;;-1.50;63.46;102274.41;5568275;32;33646;-59
2024/01/10 06:26:44;;;;;;;18.98;10.73;;;;;;;-1.69;66.82;102274.59;5563307;32;34316;-58
2024/01/10 06:29:47;;;;;;;14.73;9.73;;;;;;;-1.61;60.36;102282.56;5554518;32;33597;-58
2024/01/10 06:32:49;;;;;;;22.75;10.50;;;;;;;-1.63;58.90;102276.63;5562056;32;33625;-59
2024/01/10 06:35:52;;;;;;;18.17;10.50;;;;;;;-1.57;60.29;102275.19;5555658;32;34277;-58
2024/01/10 06:38:57;;;;;;;60.08;12.80;;;;;;;-1.74;67.05;102280.34;5566614;32;34335;-59
2024/01/10 06:42:00;;;;;;;29.77;12.93;;;;;;;-1.87;86.77;102282.53;5558010;32;33752;-59
2024/01/10 06:45:03;;;;;;;32.47;10.70;;;;;;;-1.79;80.51;102289.66;5569438;32;34306;-59
2024/01/10 06:48:08;;;;;;;18.65;9.85;;;;;;;-1.74;79.78;102295.28;5562241;32;34361;-59
2024/01/10 06:51:15;;;;;;;16.80;10.43;;;;;;;-1.71;73.32;102289.72;5558603;32;33781;-57
2024/01/10 06:54:23;;;;;;;16.92;9.82;;;;;;;-1.58;73.48;102302.50;5567217;32;33551;-58
2024/01/10 06:57:28;;;;;;;15.95;10.48;;;;;;;-1.55;75.68;102300.38;5552951;32;33837;-59
2024/01/10 07:00:33;;;;;;;28.33;10.50;;;;;;;-1.61;74.87;102308.88;5562629;32;33566;-58
2024/01/10 07:03:37;;;;;;;22.62;11.85;;;;;;;-1.49;79.24;102304.16;5559328;32;33586;-59
2024/01/10 07:06:45;;;;;;;27.80;12.77;;;;;;;-1.49;70.02;102310.28;5566936;32;33859;-59
2024/01/10 07:09:49;;;;;;;21.73;12.37;;;;;;;-1.42;68.97;102316.59;5567173;32;34353;-53
2024/01/10 07:12:54;;;;;;;17.90;11.60;;;;;;;-1.47;63.96;102313.56;5567199;32;33581;-54
2024/01/10 07:16:03;;;;;;;20.23;11.70;;;;;;;-1.51;70.63;102321.94;5568873;32;33682;-55
2024/01/10 07:19:07;;;;;;;19.90;11.68;;;;;;;-1.40;60.62;102310.34;5566470;32;33646;-54
2024/01/10 07:22:11;;;;;;;20.83;10.90;;;;;;;-1.41;57.58;102312.13;5567795;32;33741;-54
2024/01/10 07:25:17;;;;;;;;;;;;;;;-1.46;57.75;102320.50;5568102;32;33580;-54
2024/01/10 07:28:21;;;;;;;19.80;11.95;;;;;;;-1.35;55.84;102310.72;5567666;32;34047;-55
2024/01/10 07:31:28;;;;;;;24.08;11.10;;;;;;;-1.61;66.98;102311.50;5566574;32;36085;-54
2024/01/10 07:34:32;;;;;;;24.80;12.07;;;;;;;-1.40;70.37;102299.81;5564167;32;34625;-55
2024/01/10 07:37:40;;;;;;;22.30;12.60;;;;;;;-1.31;58.88;102307.59;5568802;32;33245;-54
2024/01/10 07:40:43;;;;;;;23.83;13.05;;;;;;;-1.24;65.15;102306.00;5568615;32;33292;-54
2024/01/10 07:43:47;;;;;;;22.50;12.10;;;;;;;-1.03;78.61;102310.06;5568404;32;33557;-55
2024/01/10 07:46:53;;;;;;;24.63;12.00;;;;;;;-0.69;96.87;102309.28;5562727;32;33572;-54
2024/01/10 07:49:58;;;;;;;22.50;12.90;;;;;;;-0.88;65.56;102311.16;5566329;32;33584;-55
2024/01/10 07:53:02;;;;;;;31.65;13.38;;;;;;;-0.81;59.70;102311.34;5563657;32;33586;-54
2024/01/10 07:56:05;;;;;;;21.27;12.48;;;;;;;-0.76;57.43;102314.34;5565402;32;33398;-53
2024/01/10 07:59:09;;;;;;;25.10;13.82;;;;;;;-0.81;59.23;102319.25;5565561;32;33776;-55
2024/01/10 08:02:13;;;;;;;21.48;12.80;;;;;;;-0.67;73.24;102313.38;5552691;32;32915;-54
2024/01/10 08:05:21;;;;;;;28.67;15.07;;;;;;;-0.60;57.52;102314.37;5560834;32;33438;-54
2024/01/10 08:08:24;;;;;;;26.75;13.77;;;;;;;-0.56;60.67;102317.56;5562223;32;33491;-54
2024/01/10 08:11:27;;;;;;;25.42;14.73;;;;;;;-0.55;58.20;102319.19;5566899;32;33588;-55
2024/01/10 08:14:30;;;;;;;24.65;14.70;;;;;;;-0.41;65.69;102320.38;5552302;32;33418;-54
2024/01/10 08:17:40;;;;;;;29.23;14.57;;;;;;;-0.33;61.18;102323.88;5556643;32;34327;-54
2024/01/10 08:20:45;;;;;;;33.72;15.13;;;;;;;-0.21;57.05;102316.50;5561037;32;33704;-56
2024/01/10 08:23:49;;;;;;;30.12;14.93;;;;;;;-0.10;54.80;102320.63;5555145;32;32024;-56
2024/01/10 08:26:51;;;;;;;28.48;16.25;;;;;;;0.07;53.19;102318.88;5566624;32;32667;-56
2024/01/10 08:29:54;;;;;;;27.00;14.63;;;;;;;0.26;54.18;102325.63;5566626;32;33587;-56
2024/01/10 08:32:59;;;;;;;27.13;15.57;;;;;;;0.32;52.01;102324.97;5560513;32;33685;-56
2024/01/10 08:36:02;;;;;;;21.77;14.20;;;;;;;0.45;52.03;102328.75;5565953;32;32998;-56
2024/01/10 08:39:06;;;;;;;31.23;15.43;;;;;;;0.38;66.41;102334.87;5558119;32;33760;-56
2024/01/10 08:42:09;;;;;;;22.95;15.13;;;;;;;0.48;53.19;102327.59;5562466;32;33256;-56
2024/01/10 08:45:12;;;;;;;26.42;15.95;;;;;;;0.74;88.35;102331.87;5550173;32;33113;-56
2024/01/10 08:48:15;;;;;;;24.40;15.15;;;;;;;0.71;69.30;102338.31;5558804;32;33584;-57
2024/01/10 08:51:17;;;;;;;25.77;15.50;;;;;;;0.81;61.60;102336.31;5550697;32;33164;-56
2024/01/10 08:54:22;;;;;;;28.50;15.57;;;;;;;0.96;53.02;102331.19;5556573;32;33886;-56
2024/01/10 08:57:27;;;;;;;31.40;15.02;;;;;;;0.96;52.58;102328.56;5559952;32;33479;-56
2024/01/10 09:00:31;;;;;;;34.80;14.85;;;;;;;1.13;52.48;102321.41;5558583;32;33066;-55
2024/01/10 09:03:34;;;;;;;35.47;17.42;;;;;;;1.00;52.73;102331.69;5555173;32;33199;-56
2024/01/10 09:06:37;;;;;;;29.50;15.60;;;;;;;1.15;52.05;102327.31;5563820;32;33487;-56
2024/01/10 09:09:40;;;;;;;24.77;14.50;;;;;;;1.20;51.13;102324.19;5558793;32;33544;-56
2024/01/10 09:12:45;;;;;;;28.67;15.95;;;;;;;1.24;58.41;102326.31;5552373;32;32420;-56
2024/01/10 09:15:48;;;;;;;27.23;15.65;;;;;;;1.48;50.01;102316.62;5556225;31;34425;-57
2024/01/10 09:18:54;;;;;;;27.05;16.33;;;;;;;1.50;47.62;102312.84;5550671;32;33467;-57
2024/01/10 09:21:57;;;;;;;27.83;16.27;;;;;;;1.50;52.33;102315.47;5556988;32;34327;-57
2024/01/10 09:25:03;;;;;;;28.80;15.93;;;;;;;1.58;50.93;102309.31;5551853;32;34100;-56
2024/01/10 09:28:06;;;;;;;30.25;15.43;;;;;;;1.59;47.32;102306.53;5555025;32;33283;-56
2024/01/10 09:31:08;;;;;;;26.73;15.50;;;;;;;1.61;48.38;102301.03;5566659;32;33655;-58
2024/01/10 09:34:11;;;;;;;27.02;15.38;;;;;;;1.75;47.30;102299.47;5561325;32;32079;-59
2024/01/10 09:37:14;;;;;;;23.50;13.43;;;;;;;1.94;73.46;102308.78;5561170;32;33410;-59
2024/01/10 09:40:17;;;;;;;28.45;14.02;;;;;;;2.43;89.72;102303.12;5556396;32;33842;-58
2024/01/10 09:43:21;;;;;;;24.87;14.25;;;;;;;2.38;47.26;102294.87;5563611;32;33706;-59
2024/01/10 09:46:24;;;;;;;18.42;11.27;;;;;;;2.25;54.54;102291.03;5557442;32;34280;-59
2024/01/10 09:49:27;;;;;;;21.08;12.43;;;;;;;2.85;74.58;102293.75;5556501;32;34351;-59
2024/01/10 09:52:38;;;;;;;17.83;11.15;;;;;;;2.76;74.46;102288.56;5562834;32;34336;-59
2024/01/10 09:55:42;;;;;;;22.37;12.68;;;;;;;3.22;84.55;102288.38;5559356;32;34326;-59
2024/01/10 09:58:48;;;;;;;27.17;12.40;;;;;;;3.06;47.43;102277.97;5562043;32;33562;-58
2024/01/10 10:01:52;;;;;;;19.75;11.70;;;;;;;2.90;42.85;102281.63;5566047;32;34245;-59
2024/01/10 10:05:09;;;;;;;17.55;10.95;;;;;;;2.78;40.75;102272.47;5558649;32;34623;-58
2024/01/10 10:08:13;;;;;;;;;;;;;;;2.79;40.49;102266.19;5561235;32;33585;-59
2024/01/10 10:11:15;;;;;;;20.12;9.98;;;;;;;2.81;38.65;102259.72;5564703;32;34688;-59
2024/01/10 10:14:18;;;;;;;16.33;10.15;;;;;;;2.77;45.23;102265.56;5564788;32;33858;-59
2024/01/10 10:17:21;;;;;;;16.95;9.75;;;;;;;2.90;37.89;102263.09;5561499;32;33564;-59
2024/01/10 10:20:25;;;;;;;18.98;11.02;;;;;;;2.89;47.43;102258.00;5562079;32;34369;-59
2024/01/10 10:23:27;;;;;;;19.15;11.50;;;;;;;2.93;38.88;102256.59;5559313;32;34322;-59
2024/01/10 10:26:33;;;;;;;21.92;12.13;;;;;;;2.88;40.38;102256.31;5563424;32;33746;-58
2024/01/10 10:29:37;;;;;;;20.20;10.70;;;;;;;3.04;44.11;102254.31;5565094;32;33865;-59
2024/01/10 10:32:39;;;;;;;19.02;11.15;;;;;;;3.22;76.99;102242.50;5560586;32;33463;-59
2024/01/10 10:35:44;;;;;;;19.55;11.30;;;;;;;3.28;72.74;102242.59;5561177;32;34467;-59
2024/01/10 10:38:50;;;;;;;260.90;25.80;;;;;;;3.51;42.53;102238.97;5556255;32;33394;-56
2024/01/10 10:41:57;;;;;;;15.85;10.00;;;;;;;4.16;80.98;102245.09;5561802;32;33758;-59
2024/01/10 10:45:03;;;;;;;18.48;10.95;;;;;;;3.71;43.03;102234.69;5563783;31;32475;-59
2024/01/10 10:48:09;;;;;;;;;;;;;;;3.71;39.77;102225.94;5564775;32;33772;-59
2024/01/10 10:51:19;;;;;;;14.57;9.52;;;;;;;3.62;39.80;102222.56;5564785;32;33385;-59
2024/01/10 10:54:22;;;;;;;17.10;10.65;;;;;;;3.68;38.10;102218.34;5561225;32;34799;-59
2024/01/10 10:57:26;;;;;;;18.70;10.73;;;;;;;3.57;37.67;102214.34;5555147;32;33791;-60
2024/01/10 11:00:29;;;;;;;16.45;11.45;;;;;;;3.42;37.52;102216.22;5565125;32;34371;-60
2024/01/10 11:03:34;;;;;;;17.85;11.07;;;;;;;3.46;38.01;102204.25;5555977;32;33272;-59
2024/01/10 11:06:38;;;;;;;18.67;11.13;;;;;;;3.56;38.14;102198.63;5562907;32;33720;-59
2024/01/10 11:09:44;;;;;;;17.80;9.77;;;;;;;3.56;39.36;102201.28;5562917;32;33205;-60
2024/01/10 11:12:55;;;;;;;16.95;9.98;;;;;;;3.45;37.90;102203.41;5559094;32;33251;-59
2024/01/10 11:16:06;;;;;;;15.48;9.70;;;;;;;3.51;38.43;102201.84;5559352;32;33076;-59
2024/01/10 11:19:30;;;;;;;16.33;9.88;;;;;;;3.50;40.41;102190.41;5560518;32;33674;-59
2024/01/10 11:22:56;;;;;;;18.37;10.88;;;;;;;3.74;51.06;102189.22;5556904;32;33735;-59
2024/01/10 11:25:59;;;;;;;15.05;9.75;;;;;;;4.15;49.81;102185.06;5555557;32;34207;-59
2024/01/10 11:29:01;;;;;;;16.83;10.32;;;;;;;4.00;59.84;102172.69;5552793;32;34330;-59
2024/01/10 11:32:05;;;;;;;20.23;11.45;;;;;;;4.07;55.49;102175.38;5559205;32;33827;-60
2024/01/10 11:35:20;;;;;;;17.02;10.55;;;;;;;4.12;46.20;102177.47;5560173;32;33661;-59
2024/01/10 11:38:23;;;;;;;15.10;9.85;;;;;;;4.15;47.47;102171.78;5559426;32;33636;-59
2024/01/10 11:41:36;;;;;;;19.23;10.77;;;;;;;4.43;49.85;102161.12;5557623;32;33748;-59
2024/01/10 11:44:51;;;;;;;21.10;12.13;;;;;;;4.41;46.54;102163.19;5553881;32;33876;-58
2024/01/10 11:47:53;;;;;;;19.85;11.82;;;;;;;4.48;43.98;102169.34;5557742;32;34178;-58
2024/01/10 11:51:02;;;;;;;20.50;11.90;;;;;;;4.65;60.87;102157.38;5559056;32;33831;-59
2024/01/10 11:54:05;;;;;;;19.25;11.40;;;;;;;4.99;71.00;102163.66;5564230;32;33833;-60
2024/01/10 11:57:12;;;;;;;16.30;11.07;;;;;;;5.13;49.90;102154.72;5564029;32;33785;-59
2024/01/10 12:00:16;;;;;;;21.45;10.05;;;;;;;5.06;50.77;102148.53;5561189;32;33737;-59
2024/01/10 12:03:21;;;;;;;24.63;11.38;;;;;;;4.95;68.25;102147.28;5562916;32;32220;-59
2024/01/10 12:06:25;;;;;;;17.87;11.20;;;;;;;5.18;65.18;102146.94;5563572;32;34270;-59
2024/01/10 12:09:28;;;;;;;18.98;11.32;;;;;;;5.39;71.62;102137.97;5562649;32;33784;-59
2024/01/10 12:12:32;;;;;;;20.50;11.60;;;;;;;5.59;72.27;102137.19;5561663;32;33603;-59
2024/01/10 12:15:35;;;;;;;17.92;11.95;;;;;;;5.52;50.46;102137.19;5561710;32;33723;-59
2024/01/10 12:18:38;;;;;;;22.10;11.80;;;;;;;5.26;48.66;102131.81;5555433;32;33712;-59
2024/01/10 12:21:41;;;;;;;19.52;13.50;;;;;;;5.15;55.90;102131.37;5562622;32;33732;-59
2024/01/10 12:24:48;;;;;;;22.02;13.68;;;;;;;5.07;70.48;102136.09;5556595;32;34318;-59
2024/01/10 12:27:51;;;;;;;21.62;13.77;;;;;;;5.22;48.42;102136.72;5560339;32;33707;-59
2024/01/10 12:30:53;;;;;;;20.75;14.30;;;;;;;5.12;58.49;102134.44;5562228;32;33714;-59
2024/01/10 12:33:59;;;;;;;27.17;14.77;;;;;;;5.20;50.45;102136.13;5561197;32;34413;-59
2024/01/10 12:37:01;;;;;;;23.60;14.73;;;;;;;5.31;52.19;102138.19;5557169;32;33764;-59
2024/01/10 12:40:07;;;;;;;30.85;14.65;;;;;;;5.29;57.17;102139.41;5566762;32;33691;-59
2024/01/10 12:43:12;;;;;;;24.67;15.98;;;;;;;5.53;70.14;102140.66;5565512;32;34332;-59
2024/01/10 12:46:15;;;;;;;25.35;16.08;;;;;;;5.25;43.48;102128.34;5558797;32;33621;-57
2024/01/10 12:49:17;;;;;;;24.50;15.30;;;;;;;5.44;50.48;102133.91;5562529;32;34372;-59
2024/01/10 12:52:21;;;;;;;21.87;15.13;;;;;;;5.40;71.06;102126.34;5561344;32;33674;-59
2024/01/10 12:55:27;;;;;;;24.08;15.73;;;;;;;5.62;65.92;102121.63;5561030;32;33653;-59
2024/01/10 12:58:30;;;;;;;21.00;14.77;;;;;;;5.37;48.16;102121.41;5561172;32;33673;-59
2024/01/10 13:01:33;;;;;;;20.67;14.27;;;;;;;5.61;75.48;102130.63;5562516;32;33331;-55
2024/01/10 13:04:36;;;;;;;27.02;16.80;;;;;;;5.79;75.28;102118.56;5561884;32;33686;-55
2024/01/10 13:07:38;;;;;;;28.60;16.12;;;;;;;5.79;50.20;102115.91;5562539;32;34298;-55
2024/01/10 13:10:41;;;;;;;28.55;15.68;;;;;;;5.37;45.96;102109.97;5554836;32;33634;-55
2024/01/10 13:13:44;;;;;;;24.70;15.65;;;;;;;5.34;67.50;102119.16;5560602;32;34205;-56
2024/01/10 13:16:46;;;;;;;24.60;16.40;;;;;;;5.18;49.83;102115.03;5563082;32;33733;-55
2024/01/10 13:20:02;;;;;;;27.98;16.37;;;;;;;5.26;60.31;102121.19;5550634;32;33324;-55
2024/01/10 13:23:05;;;;;;;24.00;15.40;;;;;;;5.22;64.85;102111.97;5556079;32;33686;-55
2024/01/10 13:26:07;;;;;;;28.02;16.98;;;;;;;5.26;66.50;102111.37;5562157;32;32977;-55
2024/01/10 13:29:10;;;;;;;27.40;19.75;;;;;;;5.27;52.19;102113.03;5560559;32;33603;-55
2024/01/10 13:32:12;;;;;;;22.42;16.20;;;;;;;5.32;49.83;102120.38;5569083;32;34150;-55
2024/01/10 13:35:16;;;;;;;27.55;18.08;;;;;;;5.33;73.86;102117.53;5565059;32;33714;-55
2024/01/10 13:38:19;;;;;;;29.45;18.87;;;;;;;5.06;46.83;102111.31;5554183;32;34278;-55
2024/01/10 13:41:21;;;;;;;28.33;18.55;;;;;;;4.88;47.33;102101.28;5565990;32;33226;-55
2024/01/10 13:44:24;;;;;;;26.62;18.30;;;;;;;4.82;46.44;102117.19;5567704;31;34205;-55
2024/01/10 13:47:27;;;;;;;27.77;17.73;;;;;;;4.91;49.70;102110.69;5563825;32;34413;-55
2024/01/10 13:50:30;;;;;;;27.23;17.27;;;;;;;4.99;48.09;102107.00;5559296;32;33755;-55
2024/01/10 13:53:32;;;;;;;31.25;21.40;;;;;;;4.90;46.15;102106.38;5559425;32;33579;-55
2024/01/10 13:56:35;;;;;;;29.98;19.50;;;;;;;5.02;49.79;102103.97;5559260;32;33621;-56
2024/01/10 13:59:38;;;;;;;30.77;19.37;;;;;;;5.01;64.57;102100.50;5563405;32;33623;-55
2024/01/10 14:02:43;;;;;;;27.08;18.95;;;;;;;4.95;54.90;102110.06;5564356;32;34287;-55
2024/01/10 14:05:45;;;;;;;25.15;17.20;;;;;;;5.01;48.16;102102.34;5559558;32;33740;-55
2024/01/10 14:08:50;;;;;;;27.00;18.50;;;;;;;4.97;57.08;102099.25;5564150;32;33571;-55
2024/01/10 14:11:53;;;;;;;27.50;17.77;;;;;;;5.09;50.82;102089.66;5563649;32;32313;-57
2024/01/10 14:14:55;;;;;;;25.83;17.08;;;;;;;5.01;46.36;102100.50;5564285;32;33779;-56
2024/01/10 14:18:00;;;;;;;27.90;16.98;;;;;;;4.90;46.49;102095.75;5555112;32;33579;-56
2024/01/10 14:21:05;;;;;;;27.87;16.77;;;;;;;5.04;68.26;102092.13;5564200;32;34253;-57
2024/01/10 14:24:07;;;;;;;25.12;16.52;;;;;;;4.86;46.20;102100.63;5568265;32;34330;-56
2024/01/10 14:27:10;;;;;;;27.65;18.62;;;;;;;4.83;53.67;102100.22;5561467;32;34344;-56
2024/01/10 14:30:15;;;;;;;29.83;17.17;;;;;;;5.00;70.02;102093.53;5558994;32;33742;-56
2024/01/10 14:33:17;;;;;;;29.30;18.85;;;;;;;4.93;53.58;102090.03;5562966;32;33672;-57
2024/01/10 14:36:21;;;;;;;28.38;19.35;;;;;;;4.74;66.29;102090.81;5560300;32;34333;-56
2024/01/10 14:39:25;;;;;;;29.52;19.52;;;;;;;4.80;76.09;102101.47;5563884;32;34309;-56
2024/01/10 14:42:28;;;;;;;28.87;18.30;;;;;;;4.63;56.27;102095.66;5555966;32;34480;-56
2024/01/10 14:45:31;;;;;;;31.87;19.27;;;;;;;4.49;48.81;102093.97;5560077;32;34206;-56
2024/01/10 14:48:35;;;;;;;38.00;18.12;;;;;;;4.49;47.10;102099.28;5567548;32;34394;-56
2024/01/10 14:51:37;;;;;;;31.17;17.95;;;;;;;4.37;49.09;102106.16;5554715;32;34358;-57
2024/01/10 14:54:40;;;;;;;27.42;18.30;;;;;;;4.28;50.04;102094.06;5567782;32;33980;-56
2024/01/10 14:57:42;;;;;;;31.25;19.02;;;;;;;4.26;59.45;102098.75;5557847;32;34278;-56
2024/01/10 15:00:46;;;;;;;28.92;19.37;;;;;;;4.16;53.27;102101.75;5561797;32;33625;-56
2024/01/10 15:03:48;;;;;;;29.17;17.37;;;;;;;4.16;50.44;102099.09;5565848;32;32323;-57
2024/01/10 15:06:50;;;;;;;26.40;17.45;;;;;;;4.12;48.95;102101.31;5562876;32;34336;-56
2024/01/10 15:09:58;;;;;;;29.90;17.73;;;;;;;4.10;51.06;102100.69;5552970;32;33882;-57
2024/01/10 15:13:01;;;;;;;29.63;18.42;;;;;;;4.07;52.15;102109.03;5559078;32;34437;-56
2024/01/10 15:16:04;;;;;;;29.80;18.45;;;;;;;3.94;50.06;102107.16;5558365;32;34246;-56
2024/01/10 15:19:06;;;;;;;30.88;18.10;;;;;;;3.88;65.66;102115.88;5560959;32;34307;-57
2024/01/10 15:22:09;;;;;;;30.85;18.55;;;;;;;3.92;55.14;102113.66;5553498;32;34394;-56
2024/01/10 15:25:11;;;;;;;34.15;18.50;;;;;;;3.86;53.54;102117.06;5561471;32;33796;-56
2024/01/10 15:28:14;;;;;;;34.63;18.85;;;;;;;3.70;54.50;102105.72;5554906;32;34500;-56
2024/01/10 15:31:20;;;;;;;35.53;18.48;;;;;;;3.68;50.62;102110.41;5561215;32;34323;-56
2024/01/10 15:34:24;;;;;;;36.80;21.87;;;;;;;3.70;60.60;102111.03;5555759;32;33359;-56
2024/01/10 15:37:27;;;;;;;42.17;20.90;;;;;;;3.58;61.05;102117.87;5558120;32;33674;-56
2024/01/10 15:40:29;;;;;;;37.60;20.33;;;;;;;3.49;66.56;102122.47;5556763;32;33657;-55
2024/01/10 15:43:32;;;;;;;37.88;19.20;;;;;;;3.51;66.75;102119.66;5555005;32;34456;-56
2024/01/10 15:46:34;;;;;;;31.33;19.37;;;;;;;3.36;58.20;102111.75;5559680;32;33687;-56
2024/01/10 15:49:37;;;;;;;36.40;20.15;;;;;;;3.27;53.16;102112.88;5564153;32;33704;-56
2024/01/10 15:52:39;;;;;;;34.08;19.50;;;;;;;3.24;57.17;102108.78;5561877;32;34392;-55
2024/01/10 15:55:42;;;;;;;33.92;20.67;;;;;;;3.20;52.41;102104.87;5557175;32;33747;-56
2024/01/10 15:58:44;;;;;;;33.00;20.60;;;;;;;3.21;56.58;102110.97;5560962;32;33675;-56
2024/01/10 16:01:46;;;;;;;33.28;21.08;;;;;;;3.16;62.00;102116.03;5557945;32;34396;-56
2024/01/10 16:04:49;;;;;;;36.58;21.50;;;;;;;3.05;67.11;102112.88;5554071;32;33605;-56
2024/01/10 16:07:56;;;;;;;35.97;21.58;;;;;;;2.97;58.50;102106.88;5560535;32;34310;-57
2024/01/10 16:10:59;;;;;;;32.55;20.88;;;;;;;3.01;72.77;102106.31;5566451;32;34352;-56
2024/01/10 16:14:02;;;;;;;41.22;21.67;;;;;;;3.16;81.41;102108.09;5562649;32;33581;-56
2024/01/10 16:17:05;;;;;;;39.13;22.42;;;;;;;3.16;57.94;102113.41;5555554;32;33553;-56
2024/01/10 16:20:08;;;;;;;39.13;22.42;;;;;;;3.00;72.11;102112.63;5560298;32;33640;-57
2024/01/10 16:23:10;;;;;;;39.08;23.05;;;;;;;2.95;73.59;102111.56;5549388;32;34424;-56
2024/01/10 16:26:14;;;;;;;38.28;23.27;;;;;;;2.88;67.82;102123.88;5549169;32;33955;-56
2024/01/10 16:29:18;;;;;;;34.88;22.37;;;;;;;2.76;66.86;102110.31;5549534;32;33455;-59
2024/01/10 16:32:20;;;;;;;38.70;22.45;;;;;;;2.71;62.89;102116.12;5549364;32;33719;-59
2024/01/10 16:35:22;;;;;;;38.22;25.15;;;;;;;2.80;63.49;102111.56;5549494;32;34410;-59
2024/01/10 16:38:25;;;;;;;40.20;24.02;;;;;;;2.70;74.05;102121.63;5549327;32;33737;-59
2024/01/10 16:41:28;;;;;;;36.88;23.87;;;;;;;2.70;58.43;102114.50;5549047;32;33933;-59
2024/01/10 16:44:31;;;;;;;42.85;25.23;;;;;;;2.62;70.81;102117.28;5549083;32;34353;-59
2024/01/10 16:47:33;;;;;;;42.62;25.48;;;;;;;2.62;60.83;102119.09;5549037;32;33606;-59
